sensor_id;sensor_type;location;lat;lon;timestamp;P1;durP1;ratioP1;P2;durP2;ratioP2
66143;SDS011;52947;50.842;6.084;2022-10-23T00:02:11;4.93;;;1.70;;
66143;SDS011;52947;50.842;6.084;2022-10-23T00:04:39;4.57;;;1.70;;
66143;SDS011;52947;50.842;6.084;2022-10-23T00:07:07;3.50;;;1.50;;
66143;SDS011;52947;50.842;6.084;2022-10-23T00:09:35;3.10;;;1.50;;
66143;SDS011;52947;50.842;6.084;2022-10-23T00:12:04;3.10;;;1.58;;
66143;SDS011;52947;50.842;6.084;2022-10-23T00:14:32;8.05;;;2.00;;
66143;SDS011;52947;50.842;6.084;2022-10-23T00:17:00;5.03;;;1.42;;
66143;SDS011;52947;50.842;6.084;2022-10-23T00:19:28;4.70;;;1.30;;
66143;SDS011;52947;50.842;6.084;2022-10-23T00:21:56;3.53;;;1.30;;
66143;SDS011;52947;50.842;6.084;2022-10-23T00:24:23;3.97;;;1.50;;
66143;SDS011;52947;50.842;6.084;2022-10-23T00:26:51;3.15;;;1.52;;
66143;SDS011;52947;50.842;6.084;2022-10-23T00:29:20;4.20;;;1.50;;
66143;SDS011;52947;50.842;6.084;2022-10-23T00:31:49;3.55;;;1.45;;
66143;SDS011;52947;50.842;6.084;2022-10-23T00:34:17;4.82;;;2.00;;
66143;SDS011;52947;50.842;6.084;2022-10-23T00:36:45;3.45;;;1.48;;
66143;SDS011;52947;50.842;6.084;2022-10-23T00:39:12;4.82;;;1.50;;
66143;SDS011;52947;50.842;6.084;2022-10-23T00:41:40;2.08;;;1.60;;
66143;SDS011;52947;50.842;6.084;2022-10-23T00:44:09;5.07;;;1.60;;
66143;SDS011;52947;50.842;6.084;2022-10-23T00:46:59;4.85;;;1.70;;
66143;SDS011;52947;50.842;6.084;2022-10-23T00:49:27;6.45;;;1.83;;
66143;SDS011;52947;50.842;6.084;2022-10-23T00:51:57;6.40;;;1.98;;
66143;SDS011;52947;50.842;6.084;2022-10-23T00:54:32;3.55;;;1.60;;
66143;SDS011;52947;50.842;6.084;2022-10-23T00:57:04;6.47;;;1.88;;
66143;SDS011;52947;50.842;6.084;2022-10-23T00:59:34;5.40;;;1.95;;
66143;SDS011;52947;50.842;6.084;2022-10-23T01:02:03;7.15;;;1.83;;
66143;SDS011;52947;50.842;6.084;2022-10-23T01:04:32;5.20;;;2.33;;
66143;SDS011;52947;50.842;6.084;2022-10-23T01:07:02;3.95;;;2.05;;
66143;SDS011;52947;50.842;6.084;2022-10-23T01:09:36;4.68;;;1.83;;
66143;SDS011;52947;50.842;6.084;2022-10-23T01:12:08;4.10;;;1.55;;
66143;SDS011;52947;50.842;6.084;2022-10-23T01:14:42;3.95;;;1.70;;
66143;SDS011;52947;50.842;6.084;2022-10-23T01:17:24;8.43;;;1.83;;
66143;SDS011;52947;50.842;6.084;2022-10-23T01:20:15;3.95;;;1.58;;
66143;SDS011;52947;50.842;6.084;2022-10-23T01:23:00;4.50;;;1.90;;
66143;SDS011;52947;50.842;6.084;2022-10-23T01:25:48;4.88;;;1.90;;
66143;SDS011;52947;50.842;6.084;2022-10-23T01:28:28;2.75;;;1.90;;
66143;SDS011;52947;50.842;6.084;2022-10-23T01:31:00;2.88;;;1.70;;
66143;SDS011;52947;50.842;6.084;2022-10-23T01:33:35;9.65;;;1.98;;
66143;SDS011;52947;50.842;6.084;2022-10-23T01:36:10;5.78;;;1.88;;
66143;SDS011;52947;50.842;6.084;2022-10-23T01:38:41;6.38;;;1.83;;
66143;SDS011;52947;50.842;6.084;2022-10-23T01:41:18;8.45;;;1.92;;
66143;SDS011;52947;50.842;6.084;2022-10-23T01:43:52;4.07;;;1.80;;
66143;SDS011;52947;50.842;6.084;2022-10-23T01:46:26;3.65;;;1.80;;
66143;SDS011;52947;50.842;6.084;2022-10-23T01:48:55;8.18;;;2.13;;
66143;SDS011;52947;50.842;6.084;2022-10-23T01:51:26;6.35;;;1.90;;
66143;SDS011;52947;50.842;6.084;2022-10-23T01:54:01;4.90;;;1.60;;
66143;SDS011;52947;50.842;6.084;2022-10-23T01:56:34;4.43;;;2.10;;
66143;SDS011;52947;50.842;6.084;2022-10-23T01:59:07;4.22;;;1.60;;
66143;SDS011;52947;50.842;6.084;2022-10-23T02:01:40;2.50;;;1.80;;
66143;SDS011;52947;50.842;6.084;2022-10-23T02:04:11;4.22;;;1.90;;
66143;SDS011;52947;50.842;6.084;2022-10-23T02:06:44;3.95;;;1.50;;
66143;SDS011;52947;50.842;6.084;2022-10-23T02:09:13;3.95;;;1.58;;
66143;SDS011;52947;50.842;6.084;2022-10-23T02:11:43;5.00;;;1.73;;
66143;SDS011;52947;50.842;6.084;2022-10-23T02:14:23;4.63;;;1.67;;
66143;SDS011;52947;50.842;6.084;2022-10-23T02:17:03;4.00;;;1.63;;
66143;SDS011;52947;50.842;6.084;2022-10-23T02:19:39;2.90;;;1.20;;
66143;SDS011;52947;50.842;6.084;2022-10-23T02:22:13;5.13;;;1.65;;
66143;SDS011;52947;50.842;6.084;2022-10-23T02:24:46;4.30;;;1.60;;
66143;SDS011;52947;50.842;6.084;2022-10-23T02:27:19;3.10;;;1.50;;
66143;SDS011;52947;50.842;6.084;2022-10-23T02:29:58;5.72;;;1.90;;
66143;SDS011;52947;50.842;6.084;2022-10-23T02:32:30;8.52;;;1.80;;
66143;SDS011;52947;50.842;6.084;2022-10-23T02:35:00;6.03;;;1.88;;
66143;SDS011;52947;50.842;6.084;2022-10-23T02:37:28;2.47;;;1.52;;
66143;SDS011;52947;50.842;6.084;2022-10-23T02:39:56;5.82;;;1.55;;
66143;SDS011;52947;50.842;6.084;2022-10-23T02:42:29;5.15;;;1.50;;
66143;SDS011;52947;50.842;6.084;2022-10-23T02:45:04;3.15;;;1.60;;
66143;SDS011;52947;50.842;6.084;2022-10-23T02:47:43;6.47;;;1.67;;
66143;SDS011;52947;50.842;6.084;2022-10-23T02:50:20;4.70;;;1.58;;
66143;SDS011;52947;50.842;6.084;2022-10-23T02:52:56;4.75;;;1.80;;
66143;SDS011;52947;50.842;6.084;2022-10-23T02:55:33;3.42;;;1.65;;
66143;SDS011;52947;50.842;6.084;2022-10-23T02:58:14;2.13;;;1.40;;
66143;SDS011;52947;50.842;6.084;2022-10-23T03:00:52;4.90;;;1.77;;
66143;SDS011;52947;50.842;6.084;2022-10-23T03:03:24;4.90;;;1.55;;
66143;SDS011;52947;50.842;6.084;2022-10-23T03:05:54;2.25;;;1.40;;
66143;SDS011;52947;50.842;6.084;2022-10-23T03:08:22;4.68;;;1.40;;
66143;SDS011;52947;50.842;6.084;2022-10-23T03:10:51;4.60;;;1.70;;
66143;SDS011;52947;50.842;6.084;2022-10-23T03:13:20;6.97;;;1.60;;
66143;SDS011;52947;50.842;6.084;2022-10-23T03:15:48;5.68;;;1.50;;
66143;SDS011;52947;50.842;6.084;2022-10-23T03:18:18;3.28;;;1.50;;
66143;SDS011;52947;50.842;6.084;2022-10-23T03:20:48;3.63;;;1.40;;
66143;SDS011;52947;50.842;6.084;2022-10-23T03:23:20;2.83;;;1.42;;
66143;SDS011;52947;50.842;6.084;2022-10-23T03:25:47;4.25;;;1.40;;
66143;SDS011;52947;50.842;6.084;2022-10-23T03:28:29;5.25;;;1.55;;
66143;SDS011;52947;50.842;6.084;2022-10-23T03:30:58;5.82;;;1.45;;
66143;SDS011;52947;50.842;6.084;2022-10-23T03:36:05;7.25;;;1.67;;
66143;SDS011;52947;50.842;6.084;2022-10-23T03:38:33;6.45;;;1.70;;
66143;SDS011;52947;50.842;6.084;2022-10-23T03:43:30;4.60;;;1.77;;
66143;SDS011;52947;50.842;6.084;2022-10-23T03:45:58;2.22;;;1.40;;
66143;SDS011;52947;50.842;6.084;2022-10-23T03:48:28;6.45;;;2.08;;
66143;SDS011;52947;50.842;6.084;2022-10-23T03:50:57;4.07;;;2.03;;
66143;SDS011;52947;50.842;6.084;2022-10-23T03:53:25;6.40;;;1.50;;
66143;SDS011;52947;50.842;6.084;2022-10-23T03:55:53;3.47;;;1.40;;
66143;SDS011;52947;50.842;6.084;2022-10-23T03:58:21;6.65;;;2.15;;
66143;SDS011;52947;50.842;6.084;2022-10-23T04:00:49;3.63;;;1.30;;
66143;SDS011;52947;50.842;6.084;2022-10-23T04:03:17;3.45;;;1.60;;
66143;SDS011;52947;50.842;6.084;2022-10-23T04:05:46;4.18;;;1.20;;
66143;SDS011;52947;50.842;6.084;2022-10-23T04:08:19;3.35;;;1.40;;
66143;SDS011;52947;50.842;6.084;2022-10-23T04:10:50;3.30;;;1.70;;
66143;SDS011;52947;50.842;6.084;2022-10-23T04:13:24;4.75;;;1.40;;
66143;SDS011;52947;50.842;6.084;2022-10-23T04:15:52;1.52;;;0.95;;
66143;SDS011;52947;50.842;6.084;2022-10-23T04:20:50;4.78;;;1.30;;
66143;SDS011;52947;50.842;6.084;2022-10-23T04:23:20;2.30;;;1.42;;
66143;SDS011;52947;50.842;6.084;2022-10-23T04:25:47;5.18;;;1.50;;
66143;SDS011;52947;50.842;6.084;2022-10-23T04:28:15;4.10;;;1.75;;
66143;SDS011;52947;50.842;6.084;2022-10-23T04:30:44;4.43;;;1.63;;
66143;SDS011;52947;50.842;6.084;2022-10-23T04:33:12;6.68;;;1.80;;
66143;SDS011;52947;50.842;6.084;2022-10-23T04:35:40;5.33;;;1.80;;
66143;SDS011;52947;50.842;6.084;2022-10-23T04:38:10;4.07;;;1.88;;
66143;SDS011;52947;50.842;6.084;2022-10-23T04:43:06;6.85;;;2.47;;
66143;SDS011;52947;50.842;6.084;2022-10-23T04:45:36;4.53;;;1.90;;
66143;SDS011;52947;50.842;6.084;2022-10-23T04:48:04;5.10;;;2.20;;
66143;SDS011;52947;50.842;6.084;2022-10-23T04:50:54;5.97;;;2.63;;
66143;SDS011;52947;50.842;6.084;2022-10-23T04:53:39;4.35;;;2.38;;
66143;SDS011;52947;50.842;6.084;2022-10-23T04:56:17;6.22;;;2.60;;
66143;SDS011;52947;50.842;6.084;2022-10-23T04:58:53;5.47;;;2.15;;
66143;SDS011;52947;50.842;6.084;2022-10-23T05:01:22;8.45;;;2.95;;
66143;SDS011;52947;50.842;6.084;2022-10-23T05:03:50;7.32;;;2.60;;
66143;SDS011;52947;50.842;6.084;2022-10-23T05:06:19;7.82;;;2.67;;
66143;SDS011;52947;50.842;6.084;2022-10-23T05:09:06;6.82;;;2.60;;
66143;SDS011;52947;50.842;6.084;2022-10-23T05:12:03;7.88;;;2.45;;
66143;SDS011;52947;50.842;6.084;2022-10-23T05:14:31;7.35;;;2.90;;
66143;SDS011;52947;50.842;6.084;2022-10-23T05:16:59;5.45;;;2.47;;
66143;SDS011;52947;50.842;6.084;2022-10-23T05:19:31;6.50;;;2.30;;
66143;SDS011;52947;50.842;6.084;2022-10-23T05:22:04;9.25;;;2.70;;
66143;SDS011;52947;50.842;6.084;2022-10-23T05:24:50;6.75;;;2.42;;
66143;SDS011;52947;50.842;6.084;2022-10-23T05:27:23;5.45;;;2.50;;
66143;SDS011;52947;50.842;6.084;2022-10-23T05:29:52;7.38;;;2.80;;
66143;SDS011;52947;50.842;6.084;2022-10-23T05:32:24;8.07;;;3.20;;
66143;SDS011;52947;50.842;6.084;2022-10-23T05:34:53;4.53;;;2.45;;
66143;SDS011;52947;50.842;6.084;2022-10-23T05:37:25;9.20;;;5.97;;
66143;SDS011;52947;50.842;6.084;2022-10-23T05:40:06;5.93;;;2.80;;
66143;SDS011;52947;50.842;6.084;2022-10-23T05:42:36;8.07;;;2.75;;
66143;SDS011;52947;50.842;6.084;2022-10-23T05:45:08;8.95;;;3.00;;
66143;SDS011;52947;50.842;6.084;2022-10-23T05:47:55;5.53;;;2.50;;
66143;SDS011;52947;50.842;6.084;2022-10-23T05:51:21;4.88;;;2.67;;
66143;SDS011;52947;50.842;6.084;2022-10-23T05:54:16;7.57;;;2.65;;
66143;SDS011;52947;50.842;6.084;2022-10-23T05:56:56;4.38;;;2.08;;
66143;SDS011;52947;50.842;6.084;2022-10-23T05:59:30;6.10;;;2.58;;
66143;SDS011;52947;50.842;6.084;2022-10-23T06:02:18;4.72;;;2.55;;
66143;SDS011;52947;50.842;6.084;2022-10-23T06:04:52;10.95;;;2.53;;
66143;SDS011;52947;50.842;6.084;2022-10-23T06:07:31;5.05;;;2.67;;
66143;SDS011;52947;50.842;6.084;2022-10-23T06:10:04;7.43;;;2.55;;
66143;SDS011;52947;50.842;6.084;2022-10-23T06:12:38;7.57;;;2.90;;
66143;SDS011;52947;50.842;6.084;2022-10-23T06:15:08;6.22;;;2.72;;
66143;SDS011;52947;50.842;6.084;2022-10-23T06:17:54;7.90;;;2.20;;
66143;SDS011;52947;50.842;6.084;2022-10-23T06:20:22;8.88;;;3.25;;
66143;SDS011;52947;50.842;6.084;2022-10-23T06:23:03;4.78;;;2.13;;
66143;SDS011;52947;50.842;6.084;2022-10-23T06:26:07;7.38;;;2.90;;
66143;SDS011;52947;50.842;6.084;2022-10-23T06:28:51;5.93;;;2.83;;
66143;SDS011;52947;50.842;6.084;2022-10-23T06:31:19;7.38;;;3.05;;
66143;SDS011;52947;50.842;6.084;2022-10-23T06:33:52;9.60;;;3.05;;
66143;SDS011;52947;50.842;6.084;2022-10-23T06:36:21;9.07;;;3.17;;
66143;SDS011;52947;50.842;6.084;2022-10-23T06:38:52;7.80;;;2.80;;
66143;SDS011;52947;50.842;6.084;2022-10-23T06:41:29;10.88;;;3.75;;
66143;SDS011;52947;50.842;6.084;2022-10-23T06:43:58;9.52;;;2.92;;
66143;SDS011;52947;50.842;6.084;2022-10-23T06:46:47;8.68;;;3.88;;
66143;SDS011;52947;50.842;6.084;2022-10-23T06:49:43;10.02;;;4.32;;
66143;SDS011;52947;50.842;6.084;2022-10-23T06:52:11;8.30;;;3.47;;
66143;SDS011;52947;50.842;6.084;2022-10-23T06:54:54;12.73;;;4.53;;
66143;SDS011;52947;50.842;6.084;2022-10-23T06:57:24;5.63;;;3.47;;
66143;SDS011;52947;50.842;6.084;2022-10-23T06:59:53;9.00;;;4.50;;
66143;SDS011;52947;50.842;6.084;2022-10-23T07:02:22;8.38;;;3.78;;
66143;SDS011;52947;50.842;6.084;2022-10-23T07:04:51;9.90;;;4.10;;
66143;SDS011;52947;50.842;6.084;2022-10-23T07:07:20;9.18;;;3.70;;
66143;SDS011;52947;50.842;6.084;2022-10-23T07:09:48;7.95;;;3.92;;
66143;SDS011;52947;50.842;6.084;2022-10-23T07:12:16;9.20;;;4.03;;
66143;SDS011;52947;50.842;6.084;2022-10-23T07:14:49;6.82;;;3.50;;
66143;SDS011;52947;50.842;6.084;2022-10-23T07:17:19;9.37;;;3.53;;
66143;SDS011;52947;50.842;6.084;2022-10-23T07:19:49;8.18;;;3.83;;
66143;SDS011;52947;50.842;6.084;2022-10-23T07:22:18;9.70;;;3.80;;
66143;SDS011;52947;50.842;6.084;2022-10-23T07:24:59;7.97;;;3.83;;
66143;SDS011;52947;50.842;6.084;2022-10-23T07:27:35;11.05;;;4.28;;
66143;SDS011;52947;50.842;6.084;2022-10-23T07:30:06;7.78;;;4.25;;
66143;SDS011;52947;50.842;6.084;2022-10-23T07:32:44;6.82;;;3.28;;
66143;SDS011;52947;50.842;6.084;2022-10-23T07:35:30;15.45;;;3.50;;
66143;SDS011;52947;50.842;6.084;2022-10-23T07:38:07;6.25;;;3.30;;
66143;SDS011;52947;50.842;6.084;2022-10-23T07:40:40;12.32;;;3.22;;
66143;SDS011;52947;50.842;6.084;2022-10-23T07:43:09;6.00;;;2.67;;
66143;SDS011;52947;50.842;6.084;2022-10-23T07:45:37;7.55;;;3.42;;
66143;SDS011;52947;50.842;6.084;2022-10-23T07:48:15;10.07;;;3.22;;
66143;SDS011;52947;50.842;6.084;2022-10-23T07:51:02;7.65;;;3.30;;
66143;SDS011;52947;50.842;6.084;2022-10-23T07:53:38;9.10;;;3.30;;
66143;SDS011;52947;50.842;6.084;2022-10-23T07:56:19;4.20;;;2.20;;
66143;SDS011;52947;50.842;6.084;2022-10-23T07:59:09;5.43;;;2.20;;
66143;SDS011;52947;50.842;6.084;2022-10-23T08:01:39;3.17;;;1.80;;
66143;SDS011;52947;50.842;6.084;2022-10-23T08:04:10;5.35;;;1.60;;
66143;SDS011;52947;50.842;6.084;2022-10-23T08:06:47;1.98;;;1.17;;
66143;SDS011;52947;50.842;6.084;2022-10-23T08:09:16;2.15;;;1.13;;
66143;SDS011;52947;50.842;6.084;2022-10-23T08:11:44;3.80;;;1.02;;
66143;SDS011;52947;50.842;6.084;2022-10-23T08:14:14;2.58;;;1.30;;
66143;SDS011;52947;50.842;6.084;2022-10-23T08:16:44;2.75;;;1.42;;
66143;SDS011;52947;50.842;6.084;2022-10-23T08:19:15;5.38;;;1.35;;
66143;SDS011;52947;50.842;6.084;2022-10-23T08:21:45;5.55;;;1.33;;
66143;SDS011;52947;50.842;6.084;2022-10-23T08:24:14;5.95;;;1.58;;
66143;SDS011;52947;50.842;6.084;2022-10-23T08:26:47;3.67;;;1.50;;
66143;SDS011;52947;50.842;6.084;2022-10-23T08:29:19;4.30;;;1.20;;
66143;SDS011;52947;50.842;6.084;2022-10-23T08:31:48;2.33;;;1.33;;
66143;SDS011;52947;50.842;6.084;2022-10-23T08:34:24;4.88;;;1.40;;
66143;SDS011;52947;50.842;6.084;2022-10-23T08:36:54;5.20;;;1.58;;
66143;SDS011;52947;50.842;6.084;2022-10-23T08:39:22;2.33;;;1.33;;
66143;SDS011;52947;50.842;6.084;2022-10-23T08:42:16;4.05;;;1.58;;
66143;SDS011;52947;50.842;6.084;2022-10-23T08:44:49;2.37;;;1.07;;
66143;SDS011;52947;50.842;6.084;2022-10-23T08:47:24;5.57;;;1.83;;
66143;SDS011;52947;50.842;6.084;2022-10-23T08:50:13;1.95;;;1.20;;
66143;SDS011;52947;50.842;6.084;2022-10-23T08:52:50;5.43;;;1.60;;
66143;SDS011;52947;50.842;6.084;2022-10-23T08:55:22;8.23;;;1.42;;
66143;SDS011;52947;50.842;6.084;2022-10-23T08:57:57;5.95;;;1.45;;
66143;SDS011;52947;50.842;6.084;2022-10-23T09:00:27;3.80;;;1.65;;
66143;SDS011;52947;50.842;6.084;2022-10-23T09:02:55;4.28;;;1.30;;
66143;SDS011;52947;50.842;6.084;2022-10-23T09:05:26;16.35;;;2.70;;
66143;SDS011;52947;50.842;6.084;2022-10-23T09:08:10;3.70;;;1.20;;
66143;SDS011;52947;50.842;6.084;2022-10-23T09:10:55;3.95;;;1.40;;
66143;SDS011;52947;50.842;6.084;2022-10-23T09:13:38;3.63;;;1.60;;
66143;SDS011;52947;50.842;6.084;2022-10-23T09:16:14;6.47;;;1.73;;
66143;SDS011;52947;50.842;6.084;2022-10-23T09:18:51;2.83;;;1.35;;
66143;SDS011;52947;50.842;6.084;2022-10-23T09:21:25;5.57;;;1.38;;
66143;SDS011;52947;50.842;6.084;2022-10-23T09:23:54;10.10;;;2.42;;
66143;SDS011;52947;50.842;6.084;2022-10-23T09:26:21;7.82;;;1.40;;
66143;SDS011;52947;50.842;6.084;2022-10-23T09:28:50;4.22;;;1.50;;
66143;SDS011;52947;50.842;6.084;2022-10-23T09:31:20;8.00;;;2.35;;
66143;SDS011;52947;50.842;6.084;2022-10-23T09:33:54;3.15;;;1.60;;
66143;SDS011;52947;50.842;6.084;2022-10-23T09:36:28;4.30;;;1.60;;
66143;SDS011;52947;50.842;6.084;2022-10-23T09:38:56;3.78;;;1.20;;
66143;SDS011;52947;50.842;6.084;2022-10-23T09:44:01;3.75;;;1.50;;
66143;SDS011;52947;50.842;6.084;2022-10-23T09:46:37;7.15;;;2.05;;
66143;SDS011;52947;50.842;6.084;2022-10-23T09:49:12;5.50;;;1.85;;
66143;SDS011;52947;50.842;6.084;2022-10-23T09:51:49;7.07;;;1.58;;
66143;SDS011;52947;50.842;6.084;2022-10-23T09:54:20;9.40;;;1.85;;
66143;SDS011;52947;50.842;6.084;2022-10-23T09:56:50;4.55;;;1.70;;
66143;SDS011;52947;50.842;6.084;2022-10-23T09:59:21;8.50;;;2.05;;
66143;SDS011;52947;50.842;6.084;2022-10-23T10:01:52;7.35;;;2.03;;
66143;SDS011;52947;50.842;6.084;2022-10-23T10:04:40;4.35;;;1.50;;
66143;SDS011;52947;50.842;6.084;2022-10-23T10:07:16;4.80;;;1.50;;
66143;SDS011;52947;50.842;6.084;2022-10-23T10:09:45;5.45;;;2.10;;
66143;SDS011;52947;50.842;6.084;2022-10-23T10:12:17;6.07;;;1.73;;
66143;SDS011;52947;50.842;6.084;2022-10-23T10:15:02;3.70;;;1.45;;
66143;SDS011;52947;50.842;6.084;2022-10-23T10:17:37;7.03;;;1.80;;
66143;SDS011;52947;50.842;6.084;2022-10-23T10:20:33;3.72;;;1.40;;
66143;SDS011;52947;50.842;6.084;2022-10-23T10:23:20;8.45;;;1.67;;
66143;SDS011;52947;50.842;6.084;2022-10-23T10:25:58;5.30;;;1.70;;
66143;SDS011;52947;50.842;6.084;2022-10-23T10:28:40;2.25;;;1.48;;
66143;SDS011;52947;50.842;6.084;2022-10-23T10:31:22;3.25;;;1.48;;
66143;SDS011;52947;50.842;6.084;2022-10-23T10:33:59;4.95;;;1.85;;
66143;SDS011;52947;50.842;6.084;2022-10-23T10:36:41;7.95;;;1.63;;
66143;SDS011;52947;50.842;6.084;2022-10-23T10:39:18;4.88;;;1.40;;
66143;SDS011;52947;50.842;6.084;2022-10-23T10:42:00;4.93;;;1.40;;
66143;SDS011;52947;50.842;6.084;2022-10-23T10:44:40;4.60;;;1.55;;
66143;SDS011;52947;50.842;6.084;2022-10-23T10:47:20;3.45;;;1.35;;
66143;SDS011;52947;50.842;6.084;2022-10-23T10:49:54;4.30;;;1.40;;
66143;SDS011;52947;50.842;6.084;2022-10-23T10:53:00;4.85;;;1.42;;
66143;SDS011;52947;50.842;6.084;2022-10-23T10:55:37;5.85;;;1.73;;
66143;SDS011;52947;50.842;6.084;2022-10-23T10:58:09;4.45;;;1.92;;
66143;SDS011;52947;50.842;6.084;2022-10-23T11:00:43;7.20;;;1.73;;
66143;SDS011;52947;50.842;6.084;2022-10-23T11:03:20;9.55;;;1.77;;
66143;SDS011;52947;50.842;6.084;2022-10-23T11:05:54;4.05;;;1.92;;
66143;SDS011;52947;50.842;6.084;2022-10-23T11:08:31;3.67;;;1.55;;
66143;SDS011;52947;50.842;6.084;2022-10-23T11:11:23;3.60;;;1.27;;
66143;SDS011;52947;50.842;6.084;2022-10-23T11:13:55;5.65;;;1.63;;
66143;SDS011;52947;50.842;6.084;2022-10-23T11:16:26;7.75;;;1.63;;
66143;SDS011;52947;50.842;6.084;2022-10-23T11:19:01;5.28;;;1.63;;
66143;SDS011;52947;50.842;6.084;2022-10-23T11:21:39;4.47;;;1.55;;
66143;SDS011;52947;50.842;6.084;2022-10-23T11:24:19;2.50;;;1.42;;
66143;SDS011;52947;50.842;6.084;2022-10-23T11:27:16;5.20;;;1.58;;
66143;SDS011;52947;50.842;6.084;2022-10-23T11:29:57;6.70;;;2.10;;
66143;SDS011;52947;50.842;6.084;2022-10-23T11:32:46;6.55;;;2.20;;
66143;SDS011;52947;50.842;6.084;2022-10-23T11:35:35;4.03;;;1.50;;
66143;SDS011;52947;50.842;6.084;2022-10-23T11:38:15;8.15;;;2.13;;
66143;SDS011;52947;50.842;6.084;2022-10-23T11:40:45;4.75;;;1.50;;
66143;SDS011;52947;50.842;6.084;2022-10-23T11:43:26;4.43;;;1.40;;
66143;SDS011;52947;50.842;6.084;2022-10-23T11:45:54;4.40;;;1.90;;
66143;SDS011;52947;50.842;6.084;2022-10-23T11:48:33;4.23;;;1.60;;
66143;SDS011;52947;50.842;6.084;2022-10-23T11:51:02;3.03;;;1.70;;
66143;SDS011;52947;50.842;6.084;2022-10-23T11:53:38;4.95;;;1.73;;
66143;SDS011;52947;50.842;6.084;2022-10-23T11:58:55;4.13;;;1.42;;
66143;SDS011;52947;50.842;6.084;2022-10-23T12:01:27;8.18;;;1.88;;
66143;SDS011;52947;50.842;6.084;2022-10-23T12:04:01;6.60;;;1.65;;
66143;SDS011;52947;50.842;6.084;2022-10-23T12:06:36;3.45;;;1.60;;
66143;SDS011;52947;50.842;6.084;2022-10-23T12:09:07;5.25;;;1.42;;
66143;SDS011;52947;50.842;6.084;2022-10-23T12:11:48;2.97;;;1.55;;
66143;SDS011;52947;50.842;6.084;2022-10-23T12:16:57;3.05;;;1.35;;
66143;SDS011;52947;50.842;6.084;2022-10-23T12:19:26;3.90;;;1.50;;
66143;SDS011;52947;50.842;6.084;2022-10-23T12:21:57;5.75;;;1.67;;
66143;SDS011;52947;50.842;6.084;2022-10-23T12:24:33;5.00;;;1.50;;
66143;SDS011;52947;50.842;6.084;2022-10-23T12:30:03;6.35;;;1.73;;
66143;SDS011;52947;50.842;6.084;2022-10-23T12:32:44;5.03;;;1.60;;
66143;SDS011;52947;50.842;6.084;2022-10-23T12:35:26;3.22;;;1.55;;
66143;SDS011;52947;50.842;6.084;2022-10-23T12:38:10;3.20;;;1.58;;
66143;SDS011;52947;50.842;6.084;2022-10-23T12:40:43;5.35;;;1.90;;
66143;SDS011;52947;50.842;6.084;2022-10-23T12:43:24;6.68;;;1.90;;
66143;SDS011;52947;50.842;6.084;2022-10-23T12:46:02;4.25;;;1.80;;
66143;SDS011;52947;50.842;6.084;2022-10-23T12:48:34;7.32;;;1.67;;
66143;SDS011;52947;50.842;6.084;2022-10-23T12:51:01;5.15;;;1.83;;
66143;SDS011;52947;50.842;6.084;2022-10-23T12:53:29;5.18;;;1.88;;
66143;SDS011;52947;50.842;6.084;2022-10-23T12:55:58;3.42;;;1.70;;
66143;SDS011;52947;50.842;6.084;2022-10-23T12:58:27;3.88;;;1.85;;
66143;SDS011;52947;50.842;6.084;2022-10-23T13:01:03;8.98;;;1.90;;
66143;SDS011;52947;50.842;6.084;2022-10-23T13:03:33;3.83;;;1.52;;
66143;SDS011;52947;50.842;6.084;2022-10-23T13:06:01;3.60;;;1.52;;
66143;SDS011;52947;50.842;6.084;2022-10-23T13:08:32;4.60;;;1.70;;
66143;SDS011;52947;50.842;6.084;2022-10-23T13:11:35;6.07;;;1.85;;
66143;SDS011;52947;50.842;6.084;2022-10-23T13:14:10;2.58;;;1.52;;
66143;SDS011;52947;50.842;6.084;2022-10-23T13:16:39;3.92;;;2.00;;
66143;SDS011;52947;50.842;6.084;2022-10-23T13:19:19;4.68;;;1.75;;
66143;SDS011;52947;50.842;6.084;2022-10-23T13:21:49;3.83;;;1.55;;
66143;SDS011;52947;50.842;6.084;2022-10-23T13:24:17;2.55;;;1.40;;
66143;SDS011;52947;50.842;6.084;2022-10-23T13:26:47;5.03;;;1.70;;
66143;SDS011;52947;50.842;6.084;2022-10-23T13:29:16;4.93;;;1.70;;
66143;SDS011;52947;50.842;6.084;2022-10-23T13:31:48;4.70;;;2.00;;
66143;SDS011;52947;50.842;6.084;2022-10-23T13:34:17;9.38;;;1.70;;
66143;SDS011;52947;50.842;6.084;2022-10-23T13:36:52;4.68;;;1.60;;
66143;SDS011;52947;50.842;6.084;2022-10-23T13:39:26;3.17;;;1.88;;
66143;SDS011;52947;50.842;6.084;2022-10-23T13:41:56;3.83;;;1.75;;
66143;SDS011;52947;50.842;6.084;2022-10-23T13:44:28;8.55;;;1.90;;
66143;SDS011;52947;50.842;6.084;2022-10-23T13:46:57;5.60;;;1.58;;
66143;SDS011;52947;50.842;6.084;2022-10-23T13:49:25;4.70;;;1.60;;
66143;SDS011;52947;50.842;6.084;2022-10-23T13:51:53;3.13;;;1.60;;
66143;SDS011;52947;50.842;6.084;2022-10-23T13:54:23;5.00;;;1.80;;
66143;SDS011;52947;50.842;6.084;2022-10-23T13:56:53;3.30;;;1.80;;
66143;SDS011;52947;50.842;6.084;2022-10-23T13:59:22;5.88;;;1.40;;
66143;SDS011;52947;50.842;6.084;2022-10-23T14:01:50;5.22;;;1.80;;
66143;SDS011;52947;50.842;6.084;2022-10-23T14:04:20;5.80;;;1.60;;
66143;SDS011;52947;50.842;6.084;2022-10-23T14:06:48;3.83;;;1.85;;
66143;SDS011;52947;50.842;6.084;2022-10-23T14:09:20;2.17;;;1.30;;
66143;SDS011;52947;50.842;6.084;2022-10-23T14:11:48;5.97;;;1.70;;
66143;SDS011;52947;50.842;6.084;2022-10-23T14:14:15;6.05;;;1.50;;
66143;SDS011;52947;50.842;6.084;2022-10-23T14:16:43;7.30;;;1.95;;
66143;SDS011;52947;50.842;6.084;2022-10-23T14:19:11;3.53;;;1.27;;
66143;SDS011;52947;50.842;6.084;2022-10-23T14:21:40;10.07;;;1.75;;
66143;SDS011;52947;50.842;6.084;2022-10-23T14:26:35;2.83;;;1.50;;
66143;SDS011;52947;50.842;6.084;2022-10-23T14:29:03;5.85;;;1.67;;
66143;SDS011;52947;50.842;6.084;2022-10-23T14:31:36;5.28;;;1.70;;
66143;SDS011;52947;50.842;6.084;2022-10-23T14:34:04;3.63;;;1.73;;
66143;SDS011;52947;50.842;6.084;2022-10-23T14:36:32;3.20;;;1.63;;
66143;SDS011;52947;50.842;6.084;2022-10-23T14:39:17;5.95;;;1.95;;
66143;SDS011;52947;50.842;6.084;2022-10-23T14:44:13;6.15;;;1.70;;
66143;SDS011;52947;50.842;6.084;2022-10-23T14:46:41;7.30;;;1.60;;
66143;SDS011;52947;50.842;6.084;2022-10-23T14:49:09;5.72;;;1.88;;
66143;SDS011;52947;50.842;6.084;2022-10-23T14:51:36;6.10;;;1.70;;
66143;SDS011;52947;50.842;6.084;2022-10-23T14:54:05;8.55;;;2.05;;
66143;SDS011;52947;50.842;6.084;2022-10-23T14:56:36;7.68;;;2.30;;
66143;SDS011;52947;50.842;6.084;2022-10-23T14:59:06;6.38;;;1.83;;
66143;SDS011;52947;50.842;6.084;2022-10-23T15:01:36;5.45;;;2.13;;
66143;SDS011;52947;50.842;6.084;2022-10-23T15:04:12;5.82;;;2.15;;
66143;SDS011;52947;50.842;6.084;2022-10-23T15:06:40;5.88;;;2.72;;
66143;SDS011;52947;50.842;6.084;2022-10-23T15:09:09;6.25;;;2.13;;
66143;SDS011;52947;50.842;6.084;2022-10-23T15:11:38;7.38;;;2.28;;
66143;SDS011;52947;50.842;6.084;2022-10-23T15:16:33;7.35;;;2.25;;
66143;SDS011;52947;50.842;6.084;2022-10-23T15:19:06;4.65;;;1.90;;
66143;SDS011;52947;50.842;6.084;2022-10-23T15:21:40;9.52;;;2.22;;
66143;SDS011;52947;50.842;6.084;2022-10-23T15:24:08;10.15;;;2.45;;
66143;SDS011;52947;50.842;6.084;2022-10-23T15:26:37;7.65;;;2.53;;
66143;SDS011;52947;50.842;6.084;2022-10-23T15:29:08;3.78;;;2.00;;
66143;SDS011;52947;50.842;6.084;2022-10-23T15:31:40;8.95;;;3.08;;
66143;SDS011;52947;50.842;6.084;2022-10-23T15:34:10;5.53;;;2.15;;
66143;SDS011;52947;50.842;6.084;2022-10-23T15:36:39;6.20;;;2.45;;
66143;SDS011;52947;50.842;6.084;2022-10-23T15:39:08;7.50;;;2.42;;
66143;SDS011;52947;50.842;6.084;2022-10-23T15:41:38;7.82;;;2.30;;
66143;SDS011;52947;50.842;6.084;2022-10-23T15:44:08;11.68;;;2.80;;
66143;SDS011;52947;50.842;6.084;2022-10-23T15:46:39;7.75;;;3.20;;
66143;SDS011;52947;50.842;6.084;2022-10-23T15:49:07;7.60;;;2.60;;
66143;SDS011;52947;50.842;6.084;2022-10-23T15:51:35;8.05;;;2.30;;
66143;SDS011;52947;50.842;6.084;2022-10-23T15:54:04;10.57;;;2.45;;
66143;SDS011;52947;50.842;6.084;2022-10-23T15:56:33;9.00;;;2.50;;